sensor_id;sensor_type;location;lat;lon;timestamp;P1;durP1;ratioP1;P2;durP2;ratioP2
65145;SDS011;51730;56.950;24.126;2022-08-01T00:00:12;3.90;;;2.30;;
65145;SDS011;51730;56.950;24.126;2022-08-01T00:02:39;3.35;;;2.55;;
65145;SDS011;51730;56.950;24.126;2022-08-01T00:05:07;2.80;;;2.20;;
65145;SDS011;51730;56.950;24.126;2022-08-01T00:07:35;6.18;;;2.80;;
65145;SDS011;51730;56.950;24.126;2022-08-01T00:10:03;4.55;;;2.30;;
65145;SDS011;51730;56.950;24.126;2022-08-01T00:12:31;3.83;;;2.55;;
65145;SDS011;51730;56.950;24.126;2022-08-01T00:14:58;3.50;;;2.55;;
65145;SDS011;51730;56.950;24.126;2022-08-01T00:17:25;3.60;;;2.40;;
65145;SDS011;51730;56.950;24.126;2022-08-01T00:19:52;3.35;;;2.60;;
65145;SDS011;51730;56.950;24.126;2022-08-01T00:22:18;3.80;;;2.63;;
65145;SDS011;51730;56.950;24.126;2022-08-01T00:24:45;3.28;;;2.53;;
65145;SDS011;51730;56.950;24.126;2022-08-01T00:27:12;4.32;;;2.63;;
65145;SDS011;51730;56.950;24.126;2022-08-01T00:29:39;4.75;;;2.75;;
65145;SDS011;51730;56.950;24.126;2022-08-01T00:32:26;4.55;;;3.28;;
65145;SDS011;51730;56.950;24.126;2022-08-01T00:34:55;4.28;;;3.40;;
65145;SDS011;51730;56.950;24.126;2022-08-01T00:37:22;5.35;;;2.83;;
65145;SDS011;51730;56.950;24.126;2022-08-01T00:39:49;5.05;;;3.10;;
65145;SDS011;51730;56.950;24.126;2022-08-01T00:42:16;3.97;;;2.63;;
65145;SDS011;51730;56.950;24.126;2022-08-01T00:44:43;4.65;;;3.17;;
65145;SDS011;51730;56.950;24.126;2022-08-01T00:47:10;8.90;;;3.05;;
65145;SDS011;51730;56.950;24.126;2022-08-01T00:49:37;9.98;;;3.63;;
65145;SDS011;51730;56.950;24.126;2022-08-01T00:52:04;5.35;;;2.95;;
65145;SDS011;51730;56.950;24.126;2022-08-01T00:54:32;5.00;;;3.40;;
65145;SDS011;51730;56.950;24.126;2022-08-01T00:56:59;4.93;;;3.10;;
65145;SDS011;51730;56.950;24.126;2022-08-01T00:59:26;3.13;;;2.78;;
65145;SDS011;51730;56.950;24.126;2022-08-01T01:01:54;5.50;;;2.97;;
65145;SDS011;51730;56.950;24.126;2022-08-01T01:04:21;4.30;;;3.22;;
65145;SDS011;51730;56.950;24.126;2022-08-01T01:09:46;4.70;;;3.40;;
65145;SDS011;51730;56.950;24.126;2022-08-01T01:15:17;4.82;;;2.80;;
65145;SDS011;51730;56.950;24.126;2022-08-01T01:17:52;5.78;;;3.28;;
65145;SDS011;51730;56.950;24.126;2022-08-01T01:20:38;5.32;;;2.97;;
65145;SDS011;51730;56.950;24.126;2022-08-01T01:29:06;5.75;;;3.28;;
65145;SDS011;51730;56.950;24.126;2022-08-01T01:32:02;7.85;;;3.47;;
65145;SDS011;51730;56.950;24.126;2022-08-01T01:34:29;3.97;;;3.47;;
65145;SDS011;51730;56.950;24.126;2022-08-01T01:37:01;6.70;;;3.10;;
65145;SDS011;51730;56.950;24.126;2022-08-01T01:39:29;2.97;;;2.70;;
65145;SDS011;51730;56.950;24.126;2022-08-01T01:41:57;5.13;;;4.00;;
65145;SDS011;51730;56.950;24.126;2022-08-01T01:44:25;8.45;;;3.38;;
65145;SDS011;51730;56.950;24.126;2022-08-01T01:46:53;5.95;;;4.00;;
65145;SDS011;51730;56.950;24.126;2022-08-01T01:49:23;4.97;;;4.13;;
65145;SDS011;51730;56.950;24.126;2022-08-01T01:51:53;4.30;;;3.88;;
65145;SDS011;51730;56.950;24.126;2022-08-01T01:54:28;6.38;;;4.28;;
65145;SDS011;51730;56.950;24.126;2022-08-01T01:57:00;6.45;;;3.63;;
65145;SDS011;51730;56.950;24.126;2022-08-01T01:59:30;4.57;;;3.80;;
65145;SDS011;51730;56.950;24.126;2022-08-01T02:02:01;5.55;;;3.70;;
65145;SDS011;51730;56.950;24.126;2022-08-01T02:04:37;5.75;;;3.83;;
65145;SDS011;51730;56.950;24.126;2022-08-01T02:07:10;4.68;;;3.47;;
65145;SDS011;51730;56.950;24.126;2022-08-01T02:09:41;8.30;;;3.65;;
65145;SDS011;51730;56.950;24.126;2022-08-01T02:12:10;5.25;;;3.42;;
65145;SDS011;51730;56.950;24.126;2022-08-01T02:14:39;4.22;;;3.83;;
65145;SDS011;51730;56.950;24.126;2022-08-01T02:17:10;5.05;;;3.40;;
65145;SDS011;51730;56.950;24.126;2022-08-01T02:19:41;5.25;;;2.95;;
65145;SDS011;51730;56.950;24.126;2022-08-01T02:22:14;3.95;;;3.17;;
65145;SDS011;51730;56.950;24.126;2022-08-01T02:24:54;3.85;;;3.40;;
65145;SDS011;51730;56.950;24.126;2022-08-01T02:27:28;3.80;;;3.10;;
65145;SDS011;51730;56.950;24.126;2022-08-01T02:30:07;6.38;;;3.90;;
65145;SDS011;51730;56.950;24.126;2022-08-01T02:32:41;4.78;;;3.60;;
65145;SDS011;51730;56.950;24.126;2022-08-01T02:35:13;6.25;;;3.40;;
65145;SDS011;51730;56.950;24.126;2022-08-01T02:37:46;4.15;;;3.28;;
65145;SDS011;51730;56.950;24.126;2022-08-01T02:40:16;4.22;;;3.47;;
65145;SDS011;51730;56.950;24.126;2022-08-01T02:42:46;5.10;;;3.45;;
65145;SDS011;51730;56.950;24.126;2022-08-01T02:45:21;3.95;;;3.22;;
65145;SDS011;51730;56.950;24.126;2022-08-01T02:47:51;3.95;;;2.55;;
65145;SDS011;51730;56.950;24.126;2022-08-01T02:50:22;6.15;;;3.90;;
65145;SDS011;51730;56.950;24.126;2022-08-01T02:52:52;4.80;;;3.72;;
65145;SDS011;51730;56.950;24.126;2022-08-01T02:55:20;4.82;;;3.50;;
65145;SDS011;51730;56.950;24.126;2022-08-01T02:57:49;4.50;;;3.53;;
65145;SDS011;51730;56.950;24.126;2022-08-01T03:00:25;4.90;;;2.80;;
65145;SDS011;51730;56.950;24.126;2022-08-01T03:02:54;4.55;;;3.70;;
65145;SDS011;51730;56.950;24.126;2022-08-01T03:05:22;3.80;;;3.50;;
65145;SDS011;51730;56.950;24.126;2022-08-01T03:07:51;3.28;;;2.97;;
65145;SDS011;51730;56.950;24.126;2022-08-01T03:10:20;3.67;;;3.25;;
65145;SDS011;51730;56.950;24.126;2022-08-01T03:12:48;4.68;;;3.17;;
65145;SDS011;51730;56.950;24.126;2022-08-01T03:15:16;4.45;;;3.00;;
65145;SDS011;51730;56.950;24.126;2022-08-01T03:17:45;3.10;;;2.80;;
65145;SDS011;51730;56.950;24.126;2022-08-01T03:20:15;4.50;;;3.58;;
65145;SDS011;51730;56.950;24.126;2022-08-01T03:22:44;3.42;;;3.13;;
65145;SDS011;51730;56.950;24.126;2022-08-01T03:25:14;3.78;;;2.70;;
65145;SDS011;51730;56.950;24.126;2022-08-01T03:27:43;3.47;;;2.83;;
65145;SDS011;51730;56.950;24.126;2022-08-01T03:30:11;2.97;;;2.42;;
65145;SDS011;51730;56.950;24.126;2022-08-01T03:32:39;4.55;;;3.08;;
65145;SDS011;51730;56.950;24.126;2022-08-01T03:35:06;4.53;;;3.38;;
65145;SDS011;51730;56.950;24.126;2022-08-01T03:37:38;4.03;;;3.05;;
65145;SDS011;51730;56.950;24.126;2022-08-01T03:40:31;3.13;;;2.83;;
65145;SDS011;51730;56.950;24.126;2022-08-01T03:43:18;3.83;;;3.10;;
65145;SDS011;51730;56.950;24.126;2022-08-01T03:45:50;3.53;;;2.60;;
65145;SDS011;51730;56.950;24.126;2022-08-01T03:48:20;3.35;;;2.88;;
65145;SDS011;51730;56.950;24.126;2022-08-01T03:50:53;4.50;;;3.17;;
65145;SDS011;51730;56.950;24.126;2022-08-01T03:53:24;3.90;;;2.80;;
65145;SDS011;51730;56.950;24.126;2022-08-01T03:55:56;4.18;;;2.80;;
65145;SDS011;51730;56.950;24.126;2022-08-01T03:58:26;3.05;;;2.65;;
65145;SDS011;51730;56.950;24.126;2022-08-01T04:00:54;3.17;;;2.60;;
65145;SDS011;51730;56.950;24.126;2022-08-01T04:03:22;4.07;;;2.70;;
65145;SDS011;51730;56.950;24.126;2022-08-01T04:05:49;3.47;;;2.58;;
65145;SDS011;51730;56.950;24.126;2022-08-01T04:08:16;2.80;;;2.45;;
65145;SDS011;51730;56.950;24.126;2022-08-01T04:10:43;3.05;;;2.72;;
65145;SDS011;51730;56.950;24.126;2022-08-01T04:13:11;3.20;;;2.90;;
65145;SDS011;51730;56.950;24.126;2022-08-01T04:15:38;2.80;;;2.50;;
65145;SDS011;51730;56.950;24.126;2022-08-01T04:18:05;2.22;;;2.00;;
65145;SDS011;51730;56.950;24.126;2022-08-01T04:20:32;6.50;;;2.22;;
65145;SDS011;51730;56.950;24.126;2022-08-01T04:23:01;2.00;;;1.55;;
65145;SDS011;51730;56.950;24.126;2022-08-01T04:25:31;2.58;;;1.80;;
65145;SDS011;51730;56.950;24.126;2022-08-01T04:28:01;4.00;;;1.73;;
65145;SDS011;51730;56.950;24.126;2022-08-01T04:30:31;3.65;;;1.67;;
65145;SDS011;51730;56.950;24.126;2022-08-01T04:33:00;3.40;;;1.88;;
65145;SDS011;51730;56.950;24.126;2022-08-01T04:35:31;2.15;;;1.73;;
65145;SDS011;51730;56.950;24.126;2022-08-01T04:38:21;1.65;;;1.42;;
65145;SDS011;51730;56.950;24.126;2022-08-01T04:40:53;2.38;;;1.50;;
65145;SDS011;51730;56.950;24.126;2022-08-01T04:43:22;1.50;;;1.40;;
65145;SDS011;51730;56.950;24.126;2022-08-01T04:45:50;3.17;;;1.25;;
65145;SDS011;51730;56.950;24.126;2022-08-01T04:48:18;2.78;;;1.35;;
65145;SDS011;51730;56.950;24.126;2022-08-01T04:50:48;1.35;;;1.10;;
65145;SDS011;51730;56.950;24.126;2022-08-01T04:53:16;2.58;;;1.27;;
65145;SDS011;51730;56.950;24.126;2022-08-01T04:55:44;2.28;;;1.20;;
65145;SDS011;51730;56.950;24.126;2022-08-01T04:58:15;2.10;;;1.20;;
65145;SDS011;51730;56.950;24.126;2022-08-01T05:00:44;1.40;;;1.30;;
65145;SDS011;51730;56.950;24.126;2022-08-01T05:03:11;1.48;;;1.38;;
65145;SDS011;51730;56.950;24.126;2022-08-01T05:05:38;1.40;;;1.23;;
65145;SDS011;51730;56.950;24.126;2022-08-01T05:08:05;2.33;;;1.30;;
65145;SDS011;51730;56.950;24.126;2022-08-01T05:10:33;2.00;;;1.63;;
65145;SDS011;51730;56.950;24.126;2022-08-01T05:13:00;2.67;;;1.58;;
65145;SDS011;51730;56.950;24.126;2022-08-01T05:15:27;3.17;;;1.90;;
65145;SDS011;51730;56.950;24.126;2022-08-01T05:17:54;2.70;;;1.63;;
65145;SDS011;51730;56.950;24.126;2022-08-01T05:20:22;2.55;;;1.40;;
65145;SDS011;51730;56.950;24.126;2022-08-01T05:22:49;2.80;;;1.58;;
65145;SDS011;51730;56.950;24.126;2022-08-01T05:25:16;2.72;;;1.77;;
65145;SDS011;51730;56.950;24.126;2022-08-01T05:27:51;3.17;;;1.80;;
65145;SDS011;51730;56.950;24.126;2022-08-01T05:30:19;2.60;;;1.88;;
65145;SDS011;51730;56.950;24.126;2022-08-01T05:32:46;2.05;;;1.85;;
65145;SDS011;51730;56.950;24.126;2022-08-01T05:35:13;3.05;;;1.70;;
65145;SDS011;51730;56.950;24.126;2022-08-01T05:37:39;2.08;;;1.77;;
65145;SDS011;51730;56.950;24.126;2022-08-01T05:40:06;1.60;;;1.48;;
65145;SDS011;51730;56.950;24.126;2022-08-01T05:42:34;1.50;;;1.40;;
65145;SDS011;51730;56.950;24.126;2022-08-01T05:45:01;3.30;;;1.73;;
65145;SDS011;51730;56.950;24.126;2022-08-01T05:47:28;5.43;;;1.95;;
65145;SDS011;51730;56.950;24.126;2022-08-01T05:49:55;1.60;;;1.50;;
65145;SDS011;51730;56.950;24.126;2022-08-01T05:52:21;2.00;;;1.80;;
65145;SDS011;51730;56.950;24.126;2022-08-01T05:54:48;2.35;;;1.52;;
65145;SDS011;51730;56.950;24.126;2022-08-01T05:57:15;2.00;;;1.90;;
65145;SDS011;51730;56.950;24.126;2022-08-01T05:59:42;4.38;;;1.60;;
65145;SDS011;51730;56.950;24.126;2022-08-01T06:02:09;3.55;;;1.77;;
65145;SDS011;51730;56.950;24.126;2022-08-01T06:04:36;3.28;;;1.70;;
65145;SDS011;51730;56.950;24.126;2022-08-01T06:07:03;1.98;;;1.50;;
65145;SDS011;51730;56.950;24.126;2022-08-01T06:09:30;2.35;;;1.70;;
65145;SDS011;51730;56.950;24.126;2022-08-01T06:11:57;1.98;;;1.45;;
65145;SDS011;51730;56.950;24.126;2022-08-01T06:14:24;3.15;;;1.70;;
65145;SDS011;51730;56.950;24.126;2022-08-01T06:16:51;4.57;;;1.70;;
65145;SDS011;51730;56.950;24.126;2022-08-01T06:19:18;2.72;;;1.77;;
65145;SDS011;51730;56.950;24.126;2022-08-01T06:21:45;2.92;;;2.58;;
65145;SDS011;51730;56.950;24.126;2022-08-01T06:24:11;3.00;;;1.90;;
65145;SDS011;51730;56.950;24.126;2022-08-01T06:26:38;2.95;;;1.70;;
65145;SDS011;51730;56.950;24.126;2022-08-01T06:29:05;2.83;;;1.90;;
65145;SDS011;51730;56.950;24.126;2022-08-01T06:31:35;6.05;;;2.28;;
65145;SDS011;51730;56.950;24.126;2022-08-01T06:34:02;2.45;;;1.50;;
65145;SDS011;51730;56.950;24.126;2022-08-01T06:36:29;2.90;;;2.00;;
65145;SDS011;51730;56.950;24.126;2022-08-01T06:38:56;2.65;;;2.03;;
65145;SDS011;51730;56.950;24.126;2022-08-01T06:41:22;1.55;;;1.23;;
65145;SDS011;51730;56.950;24.126;2022-08-01T06:43:49;2.72;;;2.38;;
65145;SDS011;51730;56.950;24.126;2022-08-01T06:46:16;2.55;;;1.75;;
65145;SDS011;51730;56.950;24.126;2022-08-01T06:48:43;5.72;;;1.60;;
65145;SDS011;51730;56.950;24.126;2022-08-01T06:51:10;3.92;;;1.60;;
65145;SDS011;51730;56.950;24.126;2022-08-01T06:53:41;3.22;;;1.77;;
65145;SDS011;51730;56.950;24.126;2022-08-01T06:56:10;2.25;;;1.85;;
65145;SDS011;51730;56.950;24.126;2022-08-01T06:58:37;1.77;;;1.52;;
65145;SDS011;51730;56.950;24.126;2022-08-01T07:01:04;2.38;;;1.70;;
65145;SDS011;51730;56.950;24.126;2022-08-01T07:03:35;2.50;;;1.50;;
65145;SDS011;51730;56.950;24.126;2022-08-01T07:06:20;1.40;;;1.30;;
65145;SDS011;51730;56.950;24.126;2022-08-01T07:08:48;4.10;;;2.17;;
65145;SDS011;51730;56.950;24.126;2022-08-01T07:11:15;2.05;;;1.85;;
65145;SDS011;51730;56.950;24.126;2022-08-01T07:13:42;3.13;;;1.85;;
65145;SDS011;51730;56.950;24.126;2022-08-01T07:16:12;2.08;;;1.38;;
65145;SDS011;51730;56.950;24.126;2022-08-01T07:18:39;2.58;;;1.60;;
65145;SDS011;51730;56.950;24.126;2022-08-01T07:21:07;1.83;;;1.73;;
65145;SDS011;51730;56.950;24.126;2022-08-01T07:23:54;2.78;;;2.58;;
65145;SDS011;51730;56.950;24.126;2022-08-01T07:26:21;4.32;;;1.90;;
65145;SDS011;51730;56.950;24.126;2022-08-01T07:28:48;4.15;;;1.98;;
65145;SDS011;51730;56.950;24.126;2022-08-01T07:31:15;3.38;;;1.65;;
65145;SDS011;51730;56.950;24.126;2022-08-01T07:33:42;3.50;;;2.15;;
65145;SDS011;51730;56.950;24.126;2022-08-01T07:36:14;2.25;;;2.05;;
65145;SDS011;51730;56.950;24.126;2022-08-01T07:38:42;2.10;;;1.90;;
65145;SDS011;51730;56.950;24.126;2022-08-01T07:41:09;2.00;;;1.90;;
65145;SDS011;51730;56.950;24.126;2022-08-01T07:43:36;3.15;;;1.90;;
65145;SDS011;51730;56.950;24.126;2022-08-01T07:46:03;4.18;;;2.15;;
65145;SDS011;51730;56.950;24.126;2022-08-01T07:48:30;2.33;;;1.80;;
65145;SDS011;51730;56.950;24.126;2022-08-01T07:50:57;2.97;;;2.20;;
65145;SDS011;51730;56.950;24.126;2022-08-01T07:53:24;2.95;;;2.08;;
65145;SDS011;51730;56.950;24.126;2022-08-01T07:55:52;3.22;;;2.30;;
65145;SDS011;51730;56.950;24.126;2022-08-01T07:58:18;2.20;;;2.00;;
65145;SDS011;51730;56.950;24.126;2022-08-01T08:00:45;2.67;;;2.38;;
65145;SDS011;51730;56.950;24.126;2022-08-01T08:03:12;2.45;;;2.25;;
65145;SDS011;51730;56.950;24.126;2022-08-01T08:05:39;4.18;;;2.40;;
65145;SDS011;51730;56.950;24.126;2022-08-01T08:08:25;2.17;;;1.92;;
65145;SDS011;51730;56.950;24.126;2022-08-01T08:10:52;4.68;;;2.47;;
65145;SDS011;51730;56.950;24.126;2022-08-01T08:13:19;3.17;;;2.30;;
65145;SDS011;51730;56.950;24.126;2022-08-01T08:15:47;2.38;;;2.25;;
65145;SDS011;51730;56.950;24.126;2022-08-01T08:18:14;2.58;;;2.17;;
65145;SDS011;51730;56.950;24.126;2022-08-01T08:20:42;2.60;;;2.40;;
65145;SDS011;51730;56.950;24.126;2022-08-01T08:23:09;3.75;;;2.83;;
65145;SDS011;51730;56.950;24.126;2022-08-01T08:26:11;2.80;;;2.60;;
65145;SDS011;51730;56.950;24.126;2022-08-01T08:28:38;3.10;;;2.40;;
65145;SDS011;51730;56.950;24.126;2022-08-01T08:31:06;2.90;;;2.60;;
65145;SDS011;51730;56.950;24.126;2022-08-01T08:33:54;3.47;;;2.30;;
65145;SDS011;51730;56.950;24.126;2022-08-01T08:36:21;3.72;;;2.40;;
65145;SDS011;51730;56.950;24.126;2022-08-01T08:38:57;5.32;;;2.40;;
65145;SDS011;51730;56.950;24.126;2022-08-01T08:41:27;4.13;;;2.78;;
65145;SDS011;51730;56.950;24.126;2022-08-01T08:44:04;4.15;;;2.50;;
65145;SDS011;51730;56.950;24.126;2022-08-01T08:46:43;4.72;;;3.00;;
65145;SDS011;51730;56.950;24.126;2022-08-01T08:49:19;2.60;;;2.40;;
65145;SDS011;51730;56.950;24.126;2022-08-01T08:51:49;2.65;;;2.45;;
65145;SDS011;51730;56.950;24.126;2022-08-01T08:54:18;3.22;;;2.47;;
65145;SDS011;51730;56.950;24.126;2022-08-01T08:56:49;2.85;;;2.10;;
65145;SDS011;51730;56.950;24.126;2022-08-01T08:59:17;2.83;;;2.60;;
65145;SDS011;51730;56.950;24.126;2022-08-01T09:01:45;2.72;;;2.53;;
65145;SDS011;51730;56.950;24.126;2022-08-01T09:04:14;5.20;;;2.10;;
65145;SDS011;51730;56.950;24.126;2022-08-01T09:06:41;4.10;;;2.30;;
65145;SDS011;51730;56.950;24.126;2022-08-01T09:09:08;3.38;;;2.00;;
65145;SDS011;51730;56.950;24.126;2022-08-01T09:11:36;3.25;;;2.75;;
65145;SDS011;51730;56.950;24.126;2022-08-01T09:16:33;2.88;;;2.40;;
65145;SDS011;51730;56.950;24.126;2022-08-01T09:21:57;2.85;;;1.98;;
65145;SDS011;51730;56.950;24.126;2022-08-01T09:24:27;2.10;;;2.00;;
65145;SDS011;51730;56.950;24.126;2022-08-01T09:26:56;3.60;;;3.03;;
65145;SDS011;51730;56.950;24.126;2022-08-01T09:29:29;2.85;;;2.63;;
65145;SDS011;51730;56.950;24.126;2022-08-01T09:32:06;5.20;;;2.65;;
65145;SDS011;51730;56.950;24.126;2022-08-01T09:34:39;2.97;;;2.75;;
65145;SDS011;51730;56.950;24.126;2022-08-01T09:37:06;2.85;;;2.28;;
65145;SDS011;51730;56.950;24.126;2022-08-01T09:39:37;3.58;;;2.85;;
65145;SDS011;51730;56.950;24.126;2022-08-01T09:44:54;2.63;;;2.25;;
65145;SDS011;51730;56.950;24.126;2022-08-01T09:47:22;3.03;;;2.28;;
65145;SDS011;51730;56.950;24.126;2022-08-01T09:50:04;4.30;;;2.63;;
65145;SDS011;51730;56.950;24.126;2022-08-01T09:52:36;2.70;;;2.13;;
65145;SDS011;51730;56.950;24.126;2022-08-01T09:55:06;3.58;;;2.38;;
65145;SDS011;51730;56.950;24.126;2022-08-01T09:57:34;4.30;;;3.50;;
65145;SDS011;51730;56.950;24.126;2022-08-01T10:00:01;2.92;;;2.67;;
65145;SDS011;51730;56.950;24.126;2022-08-01T10:02:37;3.90;;;2.30;;
65145;SDS011;51730;56.950;24.126;2022-08-01T10:05:10;2.58;;;2.30;;
65145;SDS011;51730;56.950;24.126;2022-08-01T10:07:59;2.10;;;1.90;;
65145;SDS011;51730;56.950;24.126;2022-08-01T10:10:33;2.45;;;2.25;;
65145;SDS011;51730;56.950;24.126;2022-08-01T10:13:02;2.63;;;2.42;;
65145;SDS011;51730;56.950;24.126;2022-08-01T10:15:30;2.97;;;2.65;;
65145;SDS011;51730;56.950;24.126;2022-08-01T10:18:04;4.78;;;2.95;;
65145;SDS011;51730;56.950;24.126;2022-08-01T10:20:42;5.70;;;2.80;;
65145;SDS011;51730;56.950;24.126;2022-08-01T10:23:09;3.08;;;2.83;;
65145;SDS011;51730;56.950;24.126;2022-08-01T10:25:39;2.70;;;2.50;;
65145;SDS011;51730;56.950;24.126;2022-08-01T10:28:16;3.40;;;2.70;;
65145;SDS011;51730;56.950;24.126;2022-08-01T10:30:49;3.25;;;2.92;;
65145;SDS011;51730;56.950;24.126;2022-08-01T10:33:18;4.38;;;2.80;;
65145;SDS011;51730;56.950;24.126;2022-08-01T10:36:09;4.25;;;2.92;;
65145;SDS011;51730;56.950;24.126;2022-08-01T10:38:36;4.70;;;2.60;;
65145;SDS011;51730;56.950;24.126;2022-08-01T10:41:04;3.30;;;3.00;;
65145;SDS011;51730;56.950;24.126;2022-08-01T10:43:34;3.17;;;2.75;;
65145;SDS011;51730;56.950;24.126;2022-08-01T10:46:03;2.92;;;2.63;;
65145;SDS011;51730;56.950;24.126;2022-08-01T10:51:28;7.30;;;4.25;;
65145;SDS011;51730;56.950;24.126;2022-08-01T10:54:15;4.40;;;3.45;;
65145;SDS011;51730;56.950;24.126;2022-08-01T10:56:44;5.35;;;3.42;;
65145;SDS011;51730;56.950;24.126;2022-08-01T10:59:14;5.15;;;3.13;;
65145;SDS011;51730;56.950;24.126;2022-08-01T11:02:08;3.75;;;2.78;;
65145;SDS011;51730;56.950;24.126;2022-08-01T11:07:16;5.35;;;3.28;;
65145;SDS011;51730;56.950;24.126;2022-08-01T11:10:37;2.95;;;2.38;;
65145;SDS011;51730;56.950;24.126;2022-08-01T11:12:48;4.40;;;3.20;;
65145;SDS011;51730;56.950;24.126;2022-08-01T11:15:17;5.97;;;4.82;;
65145;SDS011;51730;56.950;24.126;2022-08-01T11:17:56;6.72;;;5.43;;
65145;SDS011;51730;56.950;24.126;2022-08-01T11:20:30;5.78;;;5.18;;
65145;SDS011;51730;56.950;24.126;2022-08-01T11:28:23;4.70;;;4.10;;
65145;SDS011;51730;56.950;24.126;2022-08-01T11:38:44;4.47;;;3.55;;
65145;SDS011;51730;56.950;24.126;2022-08-01T11:41:13;6.18;;;3.83;;
65145;SDS011;51730;56.950;24.126;2022-08-01T11:44:09;5.25;;;4.07;;
65145;SDS011;51730;56.950;24.126;2022-08-01T11:49:28;3.53;;;3.23;;
65145;SDS011;51730;56.950;24.126;2022-08-01T11:54:54;6.55;;;4.53;;
65145;SDS011;51730;56.950;24.126;2022-08-01T11:57:26;7.38;;;5.00;;
65145;SDS011;51730;56.950;24.126;2022-08-01T12:00:05;6.25;;;4.95;;
65145;SDS011;51730;56.950;24.126;2022-08-01T12:05:15;7.75;;;5.57;;
65145;SDS011;51730;56.950;24.126;2022-08-01T12:07:50;9.75;;;6.82;;
65145;SDS011;51730;56.950;24.126;2022-08-01T12:10:19;7.85;;;6.63;;
65145;SDS011;51730;56.950;24.126;2022-08-01T12:12:48;9.32;;;6.82;;
65145;SDS011;51730;56.950;24.126;2022-08-01T12:15:17;10.88;;;7.90;;
65145;SDS011;51730;56.950;24.126;2022-08-01T12:17:46;11.80;;;8.73;;
65145;SDS011;51730;56.950;24.126;2022-08-01T12:20:25;15.77;;;11.30;;
65145;SDS011;51730;56.950;24.126;2022-08-01T12:23:00;15.98;;;12.88;;
65145;SDS011;51730;56.950;24.126;2022-08-01T12:25:32;17.73;;;15.30;;
65145;SDS011;51730;56.950;24.126;2022-08-01T12:27:59;14.43;;;12.93;;
65145;SDS011;51730;56.950;24.126;2022-08-01T12:30:29;19.08;;;14.50;;
65145;SDS011;51730;56.950;24.126;2022-08-01T12:32:57;16.67;;;13.93;;
65145;SDS011;51730;56.950;24.126;2022-08-01T12:35:25;23.00;;;14.35;;
65145;SDS011;51730;56.950;24.126;2022-08-01T12:37:57;17.85;;;14.50;;
65145;SDS011;51730;56.950;24.126;2022-08-01T12:40:27;18.85;;;15.10;;
65145;SDS011;51730;56.950;24.126;2022-08-01T12:43:00;23.13;;;17.75;;
65145;SDS011;51730;56.950;24.126;2022-08-01T12:45:37;20.23;;;15.38;;
65145;SDS011;51730;56.950;24.126;2022-08-01T12:48:22;18.27;;;15.88;;
65145;SDS011;51730;56.950;24.126;2022-08-01T12:50:51;13.95;;;12.48;;
65145;SDS011;51730;56.950;24.126;2022-08-01T12:53:19;13.15;;;11.00;;
65145;SDS011;51730;56.950;24.126;2022-08-01T12:55:51;11.65;;;8.60;;
65145;SDS011;51730;56.950;24.126;2022-08-01T12:58:30;6.30;;;5.60;;
65145;SDS011;51730;56.950;24.126;2022-08-01T13:01:05;9.60;;;6.60;;
65145;SDS011;51730;56.950;24.126;2022-08-01T13:03:37;22.40;;;14.90;;
65145;SDS011;51730;56.950;24.126;2022-08-01T13:06:11;12.98;;;8.00;;
65145;SDS011;51730;56.950;24.126;2022-08-01T13:08:42;4.20;;;3.80;;
65145;SDS011;51730;56.950;24.126;2022-08-01T13:11:10;5.45;;;4.15;;
65145;SDS011;51730;56.950;24.126;2022-08-01T13:13:44;7.68;;;4.05;;
65145;SDS011;51730;56.950;24.126;2022-08-01T13:16:14;5.60;;;4.50;;
65145;SDS011;51730;56.950;24.126;2022-08-01T13:19:12;7.15;;;4.32;;
65145;SDS011;51730;56.950;24.126;2022-08-01T13:21:41;3.92;;;3.50;;
65145;SDS011;51730;56.950;24.126;2022-08-01T13:24:27;7.50;;;3.78;;
65145;SDS011;51730;56.950;24.126;2022-08-01T13:26:56;3.95;;;3.38;;
65145;SDS011;51730;56.950;24.126;2022-08-01T13:29:29;4.22;;;2.90;;
65145;SDS011;51730;56.950;24.126;2022-08-01T13:31:56;3.78;;;2.67;;
65145;SDS011;51730;56.950;24.126;2022-08-01T13:34:34;8.35;;;4.20;;
65145;SDS011;51730;56.950;24.126;2022-08-01T13:37:01;3.38;;;3.08;;
65145;SDS011;51730;56.950;24.126;2022-08-01T13:39:38;5.30;;;2.67;;
65145;SDS011;51730;56.950;24.126;2022-08-01T13:42:11;5.82;;;3.10;;
65145;SDS011;51730;56.950;24.126;2022-08-01T13:44:44;8.27;;;2.90;;
65145;SDS011;51730;56.950;24.126;2022-08-01T13:47:12;6.28;;;2.90;;
65145;SDS011;51730;56.950;24.126;2022-08-01T13:49:41;2.63;;;2.42;;
65145;SDS011;51730;56.950;24.126;2022-08-01T13:52:08;3.13;;;2.65;;
65145;SDS011;51730;56.950;24.126;2022-08-01T13:54:35;4.93;;;2.10;;
65145;SDS011;51730;56.950;24.126;2022-08-01T13:57:04;5.40;;;2.60;;
65145;SDS011;51730;56.950;24.126;2022-08-01T13:59:32;2.85;;;2.50;;
65145;SDS011;51730;56.950;24.126;2022-08-01T14:02:02;3.13;;;2.55;;
65145;SDS011;51730;56.950;24.126;2022-08-01T14:04:39;5.40;;;3.85;;
65145;SDS011;51730;56.950;24.126;2022-08-01T14:07:13;4.57;;;3.20;;
65145;SDS011;51730;56.950;24.126;2022-08-01T14:09:41;4.57;;;2.67;;
65145;SDS011;51730;56.950;24.126;2022-08-01T14:12:29;5.30;;;2.80;;
65145;SDS011;51730;56.950;24.126;2022-08-01T14:15:02;5.10;;;2.25;;
65145;SDS011;51730;56.950;24.126;2022-08-01T14:17:30;17.63;;;11.52;;
65145;SDS011;51730;56.950;24.126;2022-08-01T14:20:03;2.63;;;2.30;;
65145;SDS011;51730;56.950;24.126;2022-08-01T14:22:31;2.47;;;1.80;;
65145;SDS011;51730;56.950;24.126;2022-08-01T14:24:58;3.53;;;2.85;;
65145;SDS011;51730;56.950;24.126;2022-08-01T14:27:28;5.97;;;5.25;;
65145;SDS011;51730;56.950;24.126;2022-08-01T14:29:56;6.78;;;5.30;;
65145;SDS011;51730;56.950;24.126;2022-08-01T14:32:28;5.53;;;2.90;;
65145;SDS011;51730;56.950;24.126;2022-08-01T14:34:55;3.22;;;2.75;;
65145;SDS011;51730;56.950;24.126;2022-08-01T14:37:23;5.20;;;3.08;;
65145;SDS011;51730;56.950;24.126;2022-08-01T14:42:25;5.90;;;4.25;;
65145;SDS011;51730;56.950;24.126;2022-08-01T14:44:52;2.38;;;2.08;;
65145;SDS011;51730;56.950;24.126;2022-08-01T14:47:19;6.28;;;3.20;;
65145;SDS011;51730;56.950;24.126;2022-08-01T14:49:47;2.28;;;1.95;;
65145;SDS011;51730;56.950;24.126;2022-08-01T14:52:15;6.28;;;5.00;;
65145;SDS011;51730;56.950;24.126;2022-08-01T14:54:42;6.25;;;4.97;;
65145;SDS011;51730;56.950;24.126;2022-08-01T14:57:09;3.33;;;3.03;;
65145;SDS011;51730;56.950;24.126;2022-08-01T14:59:36;3.70;;;2.92;;
65145;SDS011;51730;56.950;24.126;2022-08-01T15:02:03;3.17;;;2.22;;
65145;SDS011;51730;56.950;24.126;2022-08-01T15:04:30;2.70;;;2.40;;
65145;SDS011;51730;56.950;24.126;2022-08-01T15:06:57;7.40;;;5.13;;
65145;SDS011;51730;56.950;24.126;2022-08-01T15:09:24;11.45;;;8.38;;
65145;SDS011;51730;56.950;24.126;2022-08-01T15:11:51;4.10;;;2.72;;
65145;SDS011;51730;56.950;24.126;2022-08-01T15:14:18;3.83;;;2.67;;
65145;SDS011;51730;56.950;24.126;2022-08-01T15:17:03;3.25;;;2.42;;
65145;SDS011;51730;56.950;24.126;2022-08-01T15:19:31;3.00;;;1.90;;
65145;SDS011;51730;56.950;24.126;2022-08-01T15:22:01;2.47;;;1.88;;
65145;SDS011;51730;56.950;24.126;2022-08-01T15:24:28;2.83;;;1.90;;
65145;SDS011;51730;56.950;24.126;2022-08-01T15:26:55;12.43;;;6.20;;
65145;SDS011;51730;56.950;24.126;2022-08-01T15:29:22;3.10;;;2.80;;
65145;SDS011;51730;56.950;24.126;2022-08-01T15:31:49;2.72;;;2.20;;
65145;SDS011;51730;56.950;24.126;2022-08-01T15:34:16;2.00;;;1.80;;
65145;SDS011;51730;56.950;24.126;2022-08-01T15:36:43;3.33;;;1.80;;
65145;SDS011;51730;56.950;24.126;2022-08-01T15:39:13;2.78;;;2.47;;
65145;SDS011;51730;56.950;24.126;2022-08-01T15:41:41;2.58;;;1.90;;